map of SJY home
SJY - Airport
Location
City:  Seinäjoki, Etelä-Pohjanmaa (Södra Österbotten, Southern Ostrobothnia), Finland
Near (Alt.):Ilmajoki
Name:Seinäjoki Airport
ICAO:EFSI
IATA:SJY

Details
Type:Airport (Aerodrome, Airfield)
Use:Public/Civil
Latitude:62°41'32"N (62.692119)
Longitude:22°49'56"E (22.832328)
Datum:WGS 1984
Elevation:302 ft (92 m)
Variation:9.14°E (WMM2015v2 magnetic declination)
0.21° annual change
Runways:1
Longest:5062 × 98 ft (1543 × 30 m), paved

Time
Time Zone:UTC+2 (DST+3)
Local Time:

Weather
METAR:EFSI 041350Z AUTO 25005KT 210V320 9999 -SN FEW020 M10/M12 Q1012

Related Locations
Nearby:
Farthest:NZTB: 11189 mi / 18007 km
Terra Nova Bay [Mario Zucchelli Station], AQ

Find:

   beyond  
but within

Other Information
Maps:
NOTAMs:
Links:
Sources:

  
  • flag of Finland
  

Sectional Chart

Flight Planning
at skyvector.com

Satellite Image

Google Maps Satellite view

 

Copyright © 2004-2019 Karl L. Swartz. All rights reserved.
The Great Circle Mapper name and logo are trademarks of the Great Circle Mapper.
All other trademarks mentioned herein belong to their respective owners.
Please see credits for attibutions and further copyright information.

  Follow gcmap on Facebook Follow gcmap on Twitter GCmap on LinkedIn

hCard Microformat

Geo Microformat